UATG 170300Z 15007MPS CAVOK 10/02 Q1019 R14/CLRD70 NOSIG RMK QFE766/1021
QNH:(hPa/inHg/mmHg)1019 / 30.09 / 764
QFE:(hPa/inHg/mmHg)1022 / 30.17 / 766
Temperature10
Dew Point2
Visibility> 10000
WeatherCAVOK
Cloud Cover
Transition Height1570 m./5100 ft.
Transition LevelFL60
SQUAWK